createdAt,value
2019-05-17T00:02:12.597Z,95.65
2019-05-17T00:04:43.173Z,95.57
2019-05-17T00:07:13.678Z,95.39
2019-05-17T00:09:44.171Z,95.29
2019-05-17T00:12:16.631Z,95.36
2019-05-17T00:14:47.270Z,95.45
2019-05-17T00:17:17.873Z,95.30
2019-05-17T00:19:48.240Z,95.33
2019-05-17T00:22:18.767Z,95.38
2019-05-17T00:24:49.220Z,95.65
2019-05-17T00:27:19.661Z,95.90
2019-05-17T00:29:50.252Z,95.89
2019-05-17T00:32:20.637Z,95.80
2019-05-17T00:34:51.061Z,95.86
2019-05-17T00:37:21.471Z,95.78
2019-05-17T00:39:52.068Z,95.88
2019-05-17T00:42:22.517Z,95.89
2019-05-17T00:44:53.054Z,96.08
2019-05-17T00:47:23.498Z,96.30
2019-05-17T00:49:53.957Z,96.50
2019-05-17T00:52:24.380Z,96.56
2019-05-17T00:54:56.346Z,96.51
2019-05-17T00:57:27.469Z,96.37
2019-05-17T00:59:58.008Z,96.54
2019-05-17T01:02:28.460Z,96.65
2019-05-17T01:04:58.849Z,96.60
2019-05-17T01:07:29.390Z,96.42
2019-05-17T01:09:59.858Z,96.63
2019-05-17T01:12:30.283Z,96.66
2019-05-17T01:15:00.816Z,96.43
2019-05-17T01:17:31.262Z,96.24
2019-05-17T01:20:01.743Z,96.36
2019-05-17T01:22:32.318Z,96.24
2019-05-17T01:25:02.800Z,96.36
2019-05-17T01:27:33.292Z,96.49
2019-05-17T01:30:03.781Z,96.62
2019-05-17T01:32:34.258Z,96.79
2019-05-17T01:35:07.018Z,96.76
2019-05-17T01:37:37.306Z,96.82
2019-05-17T01:40:08.044Z,96.81
2019-05-17T01:42:38.497Z,96.49
2019-05-17T01:45:09.200Z,96.32
2019-05-17T01:47:39.650Z,96.45
2019-05-17T01:50:11.621Z,96.54
2019-05-17T01:52:42.149Z,96.57
2019-05-17T01:55:12.610Z,96.73
2019-05-17T01:57:43.044Z,96.79
2019-05-17T02:00:17.276Z,96.61
2019-05-17T02:02:48.701Z,96.50
2019-05-17T02:05:19.693Z,96.59
2019-05-17T02:07:50.146Z,96.75
2019-05-17T02:10:21.094Z,96.74
2019-05-17T02:12:51.580Z,96.84
2019-05-17T02:15:22.468Z,97.00
2019-05-17T02:17:52.858Z,97.11
2019-05-17T02:20:23.937Z,97.21
2019-05-17T02:22:56.371Z,96.93
2019-05-17T02:25:27.224Z,97.00
2019-05-17T02:27:57.874Z,96.75
2019-05-17T02:30:28.355Z,96.83
2019-05-17T02:33:03.392Z,96.77
2019-05-17T02:35:33.663Z,96.73
2019-05-17T02:38:04.078Z,96.46
2019-05-17T02:40:34.572Z,96.54
2019-05-17T02:43:05.096Z,96.65
2019-05-17T02:45:35.535Z,96.69
2019-05-17T02:48:05.996Z,96.78
2019-05-17T02:50:36.415Z,97.00
2019-05-17T02:53:06.843Z,97.00
2019-05-17T02:55:37.332Z,97.19
2019-05-17T02:58:07.821Z,97.20
2019-05-17T03:00:38.250Z,96.98
2019-05-17T03:03:08.709Z,97.16
2019-05-17T03:05:42.817Z,97.08
2019-05-17T03:08:12.279Z,96.98
2019-05-17T03:10:43.461Z,96.95
2019-05-17T03:13:17.633Z,97.03
2019-05-17T03:15:46.053Z,97.05
2019-05-17T03:18:16.549Z,97.06
2019-05-17T03:20:46.998Z,97.18
2019-05-17T03:23:17.479Z,97.02
2019-05-17T03:25:47.884Z,97.12
2019-05-17T03:28:18.334Z,97.22
2019-05-17T03:30:55.642Z,97.31
2019-05-17T03:33:26.412Z,97.35
2019-05-17T03:35:56.458Z,97.18
2019-05-17T03:38:27.905Z,97.17
2019-05-17T03:41:13.482Z,97.13
2019-05-17T03:43:30.604Z,97.05
2019-05-17T03:46:02.652Z,97.08
2019-05-17T03:48:33.658Z,97.17
2019-05-17T03:51:04.140Z,97.31
2019-05-17T03:53:34.617Z,97.49
2019-05-17T03:56:05.255Z,97.48
2019-05-17T03:58:35.732Z,97.33
2019-05-17T04:01:06.220Z,97.36
2019-05-17T04:03:36.731Z,97.16
2019-05-17T04:06:07.169Z,97.29
2019-05-17T04:08:37.673Z,97.30
2019-05-17T04:11:22.475Z,97.36
2019-05-17T04:13:43.036Z,97.36
2019-05-17T04:16:13.922Z,97.26
2019-05-17T04:18:44.862Z,97.07
2019-05-17T04:21:15.251Z,97.04
2019-05-17T04:23:45.843Z,97.03
2019-05-17T04:26:16.304Z,96.97
2019-05-17T04:28:46.755Z,97.11
2019-05-17T04:31:17.278Z,97.12
2019-05-17T04:33:47.745Z,97.24
2019-05-17T04:36:18.334Z,97.27
2019-05-17T04:38:48.809Z,97.40
2019-05-17T04:41:38.773Z,97.44
2019-05-17T04:43:53.222Z,97.17
2019-05-17T04:46:23.827Z,97.19
2019-05-17T04:48:54.357Z,97.18
2019-05-17T04:51:24.820Z,97.20
2019-05-17T04:53:55.315Z,97.18
2019-05-17T04:56:25.828Z,96.96
2019-05-17T04:58:56.314Z,97.18
2019-05-17T05:01:26.875Z,97.11
2019-05-17T05:03:57.371Z,96.91
2019-05-17T05:06:32.561Z,96.77
2019-05-17T05:09:02.753Z,96.95
2019-05-17T05:11:33.439Z,96.93
2019-05-17T05:14:04.021Z,97.20
2019-05-17T05:16:34.478Z,97.38
2019-05-17T05:19:04.955Z,97.48
2019-05-17T05:21:35.424Z,97.52
2019-05-17T05:24:05.920Z,97.54
2019-05-17T05:26:36.391Z,97.24
2019-05-17T05:29:06.863Z,96.80
2019-05-17T05:31:37.343Z,96.87
2019-05-17T05:34:07.811Z,96.74
2019-05-17T05:36:38.364Z,96.74
2019-05-17T05:39:11.524Z,96.81
2019-05-17T05:41:42.720Z,96.88
2019-05-17T05:44:13.313Z,96.41
2019-05-17T05:46:43.807Z,95.93
2019-05-17T05:49:14.295Z,96.11
2019-05-17T05:51:44.847Z,96.48
2019-05-17T05:54:15.327Z,96.69
2019-05-17T05:56:45.796Z,96.68
2019-05-17T05:59:16.314Z,96.67
2019-05-17T06:01:46.772Z,96.41
2019-05-17T06:04:17.260Z,96.07
2019-05-17T06:06:47.754Z,96.03
2019-05-17T06:09:18.264Z,96.19
2019-05-17T06:11:48.743Z,96.35
2019-05-17T06:14:21.459Z,96.28
2019-05-17T06:16:52.050Z,96.28
2019-05-17T06:19:22.714Z,96.28
2019-05-17T06:21:53.195Z,96.20
2019-05-17T06:24:23.711Z,95.99
2019-05-17T06:26:54.285Z,95.92
2019-05-17T06:29:24.828Z,96.01
2019-05-17T06:31:55.310Z,95.93
2019-05-17T06:34:25.778Z,95.86
2019-05-17T06:36:56.331Z,95.69
2019-05-17T06:39:26.745Z,95.35
2019-05-17T06:41:57.213Z,95.53
2019-05-17T06:44:27.741Z,95.50
2019-05-17T06:46:58.232Z,95.25
2019-05-17T06:49:28.749Z,95.05
2019-05-17T06:51:59.279Z,95.00
2019-05-17T06:54:29.737Z,94.96
2019-05-17T06:57:03.068Z,94.65
2019-05-17T06:59:32.436Z,94.77
2019-05-17T07:02:02.936Z,94.58
2019-05-17T07:04:33.411Z,94.26
2019-05-17T07:07:21.698Z,93.81
2019-05-17T07:09:52.225Z,93.07
2019-05-17T07:12:22.701Z,93.54
2019-05-17T07:14:53.262Z,93.55
2019-05-17T07:17:24.310Z,93.17
2019-05-17T07:19:54.774Z,90.14
2019-05-17T07:22:25.331Z,89.59
2019-05-17T07:24:55.810Z,89.83
2019-05-17T07:27:37.944Z,89.43
2019-05-17T07:29:59.278Z,88.66
2019-05-17T07:32:29.971Z,87.78
2019-05-17T07:35:00.565Z,88.78
2019-05-17T07:37:31.338Z,89.58
2019-05-17T07:40:05.110Z,88.88
2019-05-17T07:42:34.275Z,88.92
2019-05-17T07:45:05.588Z,89.61
2019-05-17T07:47:36.106Z,90.03
2019-05-17T07:50:10.832Z,88.79
2019-05-17T07:52:40.475Z,88.76
2019-05-17T07:55:11.380Z,88.85
2019-05-17T07:57:41.931Z,89.29
2019-05-17T08:00:14.358Z,89.36
2019-05-17T08:02:44.822Z,89.95
2019-05-17T08:05:15.816Z,89.71
2019-05-17T08:07:46.467Z,89.75
2019-05-17T08:10:20.196Z,89.59
2019-05-17T08:12:49.929Z,88.91
2019-05-17T08:15:20.472Z,89.11
2019-05-17T08:17:50.952Z,90.38
2019-05-17T08:20:21.443Z,89.88
2019-05-17T08:22:52.028Z,89.63
2019-05-17T08:25:22.657Z,89.34
2019-05-17T08:27:53.125Z,89.14
2019-05-17T08:30:24.318Z,85.86
2019-05-17T08:32:54.798Z,86.21
2019-05-17T08:35:25.323Z,85.22
2019-05-17T08:37:55.844Z,84.94
2019-05-17T08:40:26.328Z,84.32
2019-05-17T08:42:56.924Z,85.02
2019-05-17T08:45:29.499Z,84.52
2019-05-17T08:48:00.384Z,83.21
2019-05-17T08:50:31.291Z,84.19
2019-05-17T08:53:02.048Z,82.74
2019-05-17T08:55:32.549Z,82.64
2019-05-17T08:58:03.245Z,82.65
2019-05-17T09:00:33.765Z,83.18
2019-05-17T09:03:04.395Z,81.82
2019-05-17T09:05:34.889Z,80.82
2019-05-17T09:08:05.477Z,80.15
2019-05-17T09:10:36.022Z,81.20
2019-05-17T09:13:06.567Z,80.48
2019-05-17T09:15:37.062Z,79.37
2019-05-17T09:18:09.804Z,79.63
2019-05-17T09:20:40.580Z,81.11
2019-05-17T09:23:11.514Z,80.29
2019-05-17T09:25:42.011Z,81.36
2019-05-17T09:28:12.571Z,79.30
2019-05-17T09:30:45.648Z,80.04
2019-05-17T09:33:16.172Z,80.74
2019-05-17T09:35:46.723Z,78.63
2019-05-17T09:38:17.251Z,78.73
2019-05-17T09:40:47.718Z,80.14
2019-05-17T09:43:20.700Z,75.51
2019-05-17T09:45:51.473Z,75.17
2019-05-17T09:48:21.911Z,75.99
2019-05-17T09:50:52.402Z,77.20
2019-05-17T09:53:23.708Z,77.56
2019-05-17T09:55:54.343Z,77.04
2019-05-17T09:58:24.888Z,78.41
2019-05-17T10:00:55.475Z,79.00
2019-05-17T10:03:26.076Z,77.51
2019-05-17T10:05:56.564Z,76.31
2019-05-17T10:08:27.204Z,73.65
2019-05-17T10:11:06.009Z,78.37
2019-05-17T10:13:29.964Z,76.18
2019-05-17T10:16:00.597Z,75.29
2019-05-17T10:18:31.601Z,75.36
2019-05-17T10:21:02.109Z,73.62
2019-05-17T10:23:32.743Z,76.22
2019-05-17T10:26:10.590Z,76.65
2019-05-17T10:28:56.178Z,76.28
2019-05-17T10:31:30.251Z,70.74
2019-05-17T10:34:16.853Z,71.73
2019-05-17T10:36:50.532Z,72.55
2019-05-17T10:39:20.107Z,73.26
2019-05-17T10:41:53.974Z,74.35
2019-05-17T10:44:24.595Z,74.35
2019-05-17T10:46:55.217Z,69.39
2019-05-17T10:49:25.838Z,70.92
2019-05-17T10:51:56.382Z,71.35
2019-05-17T10:54:29.964Z,73.73
2019-05-17T10:57:00.205Z,71.73
2019-05-17T10:59:30.666Z,71.77
2019-05-17T11:02:01.208Z,69.32
2019-05-17T11:04:31.852Z,67.34
2019-05-17T11:07:02.380Z,69.82
2019-05-17T11:09:32.936Z,67.72
2019-05-17T11:12:03.585Z,68.02
2019-05-17T11:14:38.327Z,70.78
2019-05-17T11:17:06.762Z,70.89
2019-05-17T11:19:37.468Z,68.70
2019-05-17T11:22:08.070Z,67.62
2019-05-17T11:24:38.600Z,69.03
2019-05-17T11:27:09.215Z,68.60
2019-05-17T11:29:39.979Z,69.23
2019-05-17T11:32:10.614Z,66.56
2019-05-17T11:34:41.161Z,66.79
2019-05-17T11:37:11.899Z,67.35
2019-05-17T11:39:42.664Z,67.06
2019-05-17T11:42:13.474Z,67.44
2019-05-17T11:44:44.200Z,69.22
2019-05-17T11:47:14.939Z,67.73
2019-05-17T11:49:45.624Z,68.51
2019-05-17T11:52:16.460Z,67.60
2019-05-17T11:54:46.849Z,65.38
2019-05-17T11:57:17.492Z,69.20
2019-05-17T11:59:49.901Z,66.93
2019-05-17T12:02:21.609Z,68.56
2019-05-17T12:04:53.767Z,63.52
2019-05-17T12:07:24.639Z,64.98
2019-05-17T12:09:55.442Z,64.43
2019-05-17T12:12:26.191Z,66.09
2019-05-17T12:14:56.838Z,67.25
2019-05-17T12:17:27.539Z,67.38
2019-05-17T12:19:58.396Z,68.63
2019-05-17T12:22:29.012Z,69.87
2019-05-17T12:25:00.020Z,69.20
2019-05-17T12:27:30.612Z,68.44
2019-05-17T12:30:01.119Z,70.18
2019-05-17T12:32:31.740Z,70.08
2019-05-17T12:35:02.465Z,70.45
2019-05-17T12:37:33.432Z,68.22
2019-05-17T12:40:04.016Z,66.25
2019-05-17T12:42:34.554Z,66.60
2019-05-17T12:45:05.351Z,63.38
2019-05-17T12:47:35.974Z,65.77
2019-05-17T12:50:06.676Z,63.44
2019-05-17T12:52:37.536Z,65.11
2019-05-17T12:55:08.250Z,64.11
2019-05-17T12:57:38.810Z,65.03
2019-05-17T13:00:11.651Z,65.79
2019-05-17T13:02:42.260Z,65.20
2019-05-17T13:05:13.193Z,65.08
2019-05-17T13:07:43.781Z,67.36
2019-05-17T13:10:18.615Z,66.75
2019-05-17T13:12:49.128Z,68.29
2019-05-17T13:15:20.852Z,69.00
2019-05-17T13:17:51.754Z,68.27
2019-05-17T13:20:26.762Z,68.65
2019-05-17T13:22:57.329Z,70.78
2019-05-17T13:25:27.969Z,67.43
2019-05-17T13:27:58.565Z,68.26
2019-05-17T13:30:29.189Z,68.11
2019-05-17T13:32:59.807Z,63.37
2019-05-17T13:35:30.427Z,60.51
2019-05-17T13:38:01.114Z,60.25
2019-05-17T13:40:39.244Z,61.71
2019-05-17T13:43:04.677Z,61.91
2019-05-17T13:45:36.136Z,63.81
2019-05-17T13:48:06.642Z,64.02
2019-05-17T13:50:38.991Z,66.23
2019-05-17T13:53:09.609Z,63.77
2019-05-17T13:55:40.402Z,61.77
2019-05-17T13:58:10.945Z,64.37
2019-05-17T14:00:41.649Z,62.80
2019-05-17T14:03:12.206Z,60.17
2019-05-17T14:05:42.706Z,56.57
2019-05-17T14:08:13.247Z,56.58
2019-05-17T14:10:44.132Z,55.50
2019-05-17T14:13:14.734Z,56.20
2019-05-17T14:15:46.063Z,56.56
2019-05-17T14:18:16.706Z,58.67
2019-05-17T14:20:47.217Z,58.95
2019-05-17T14:23:17.791Z,62.17
2019-05-17T14:25:48.474Z,63.41
2019-05-17T14:28:18.999Z,62.77
2019-05-17T14:30:49.496Z,64.68
2019-05-17T14:33:20.017Z,63.95
2019-05-17T14:35:50.580Z,65.18
2019-05-17T14:38:21.160Z,65.17
2019-05-17T14:41:06.686Z,64.45
2019-05-17T14:43:26.174Z,61.54
2019-05-17T14:45:56.692Z,59.74
2019-05-17T14:48:27.234Z,58.82
2019-05-17T14:50:57.743Z,56.61
2019-05-17T14:53:28.258Z,54.21
2019-05-17T14:55:58.784Z,55.36
2019-05-17T14:58:29.426Z,56.81
2019-05-17T15:00:59.961Z,56.95
2019-05-17T15:03:30.439Z,53.13
2019-05-17T15:06:00.989Z,45.65
2019-05-17T15:08:32.758Z,41.91
2019-05-17T15:11:02.240Z,38.95
2019-05-17T15:13:32.764Z,36.33
2019-05-17T15:16:03.459Z,38.61
2019-05-17T15:18:33.925Z,36.46
2019-05-17T15:21:04.773Z,39.79
2019-05-17T15:23:35.281Z,39.62
2019-05-17T15:26:05.783Z,41.82
2019-05-17T15:28:36.335Z,42.49
2019-05-17T15:31:06.855Z,47.71
2019-05-17T15:33:37.348Z,49.52
2019-05-17T15:36:07.969Z,51.40
2019-05-17T15:38:38.543Z,53.49
2019-05-17T15:41:09.126Z,54.83
2019-05-17T15:43:39.702Z,53.08
2019-05-17T15:46:10.255Z,55.25
2019-05-17T15:48:40.828Z,56.01
2019-05-17T15:51:11.610Z,52.84
2019-05-17T15:53:42.126Z,52.63
2019-05-17T15:56:12.561Z,53.53
2019-05-17T15:58:43.250Z,55.49
2019-05-17T16:01:15.888Z,55.78
2019-05-17T16:03:46.625Z,56.21
2019-05-17T16:06:17.241Z,50.08
2019-05-17T16:08:47.875Z,47.20
2019-05-17T16:11:18.812Z,46.19
2019-05-17T16:13:50.735Z,48.15
2019-05-17T16:16:21.318Z,43.41
2019-05-17T16:18:51.972Z,42.21
2019-05-17T16:21:22.587Z,40.12
2019-05-17T16:23:53.132Z,43.34
2019-05-17T16:26:23.681Z,45.69
2019-05-17T16:28:54.379Z,43.66
2019-05-17T16:31:25.687Z,46.86
2019-05-17T16:33:56.256Z,44.84
2019-05-17T16:36:26.923Z,45.81
2019-05-17T16:38:57.484Z,47.40
2019-05-17T16:41:29.092Z,47.13
2019-05-17T16:43:59.675Z,47.34
2019-05-17T16:46:30.306Z,45.98
2019-05-17T16:49:00.761Z,44.78
2019-05-17T16:51:31.323Z,42.78
2019-05-17T16:54:01.840Z,42.82
2019-05-17T16:56:32.607Z,44.25
2019-05-17T16:59:03.255Z,42.28
2019-05-17T17:01:33.865Z,44.01
2019-05-17T17:04:04.457Z,49.63
2019-05-17T17:06:34.990Z,56.04
2019-05-17T17:09:06.888Z,60.23
2019-05-17T17:11:37.415Z,62.90
2019-05-17T17:14:07.968Z,65.83
2019-05-17T17:16:38.422Z,67.90
2019-05-17T17:19:09.060Z,68.00
2019-05-17T17:21:39.647Z,68.84
2019-05-17T17:24:10.221Z,69.71
2019-05-17T17:26:40.797Z,70.41
2019-05-17T17:29:11.341Z,70.61
2019-05-17T17:31:41.909Z,71.00
2019-05-17T17:34:12.399Z,70.58
2019-05-17T17:36:42.857Z,69.16
2019-05-17T17:39:13.424Z,70.26
2019-05-17T17:41:43.903Z,71.29
2019-05-17T17:44:14.422Z,71.22
2019-05-17T17:46:44.987Z,70.88
2019-05-17T17:49:15.505Z,71.98
2019-05-17T17:51:46.074Z,71.31
2019-05-17T17:54:16.611Z,71.59
2019-05-17T17:56:47.139Z,71.91
2019-05-17T17:59:17.633Z,71.83
2019-05-17T18:01:48.289Z,72.51
2019-05-17T18:04:18.817Z,73.10
2019-05-17T18:06:49.325Z,72.86
2019-05-17T18:09:19.921Z,73.87
2019-05-17T18:11:50.462Z,74.39
2019-05-17T18:14:21.037Z,74.16
2019-05-17T18:16:51.582Z,73.78
2019-05-17T18:19:22.124Z,73.94
2019-05-17T18:21:52.723Z,73.65
2019-05-17T18:24:23.239Z,74.92
2019-05-17T18:26:53.822Z,74.82
2019-05-17T18:29:24.446Z,75.18
2019-05-17T18:31:55.013Z,75.17
2019-05-17T18:34:25.594Z,76.16
2019-05-17T18:36:56.215Z,76.38
2019-05-17T18:39:26.743Z,76.42
2019-05-17T18:41:57.347Z,76.06
2019-05-17T18:44:28.294Z,76.68
2019-05-17T18:46:58.784Z,77.04
2019-05-17T18:49:29.258Z,77.24
2019-05-17T18:51:59.974Z,76.83
2019-05-17T18:54:30.589Z,77.23
2019-05-17T18:57:01.279Z,77.40
2019-05-17T18:59:31.816Z,77.79
2019-05-17T19:02:02.532Z,78.43
2019-05-17T19:04:33.256Z,77.75
2019-05-17T19:07:03.915Z,78.66
2019-05-17T19:09:34.596Z,79.10
2019-05-17T19:12:05.433Z,79.29
2019-05-17T19:14:42.959Z,79.15
2019-05-17T19:17:09.182Z,80.21
2019-05-17T19:19:39.827Z,80.62
2019-05-17T19:22:10.489Z,80.37
2019-05-17T19:24:41.049Z,80.64
2019-05-17T19:27:11.650Z,82.02
2019-05-17T19:29:43.395Z,81.87
2019-05-17T19:32:14.224Z,82.38
2019-05-17T19:34:44.881Z,81.88
2019-05-17T19:37:16.066Z,82.59
2019-05-17T19:39:46.871Z,82.92
2019-05-17T19:42:17.844Z,82.32
2019-05-17T19:44:58.728Z,82.95
2019-05-17T19:47:20.978Z,82.91
2019-05-17T19:49:51.701Z,83.45
2019-05-17T19:52:22.553Z,84.27
2019-05-17T19:54:53.270Z,84.45
2019-05-17T19:57:24.053Z,83.89
2019-05-17T19:59:55.105Z,84.36
2019-05-17T20:02:25.875Z,84.47
2019-05-17T20:04:56.454Z,84.99
2019-05-17T20:07:39.759Z,85.68
2019-05-17T20:10:11.664Z,85.32
2019-05-17T20:12:42.268Z,85.62
2019-05-17T20:15:17.825Z,85.85
2019-05-17T20:17:45.983Z,85.49
2019-05-17T20:20:17.261Z,86.08
2019-05-17T20:22:47.863Z,86.13
2019-05-17T20:25:19.917Z,86.58
2019-05-17T20:27:50.444Z,86.42
2019-05-17T20:30:21.541Z,86.36
2019-05-17T20:32:52.104Z,86.59
2019-05-17T20:35:22.649Z,85.94
2019-05-17T20:37:53.301Z,86.91
2019-05-17T20:40:23.982Z,87.07
2019-05-17T20:42:54.533Z,87.29
2019-05-17T20:45:33.177Z,86.91
2019-05-17T20:47:57.791Z,87.51
2019-05-17T20:50:28.393Z,87.40
2019-05-17T20:52:59.028Z,87.65
2019-05-17T20:55:29.617Z,87.96
2019-05-17T20:58:00.287Z,88.49
2019-05-17T21:00:30.980Z,88.77
2019-05-17T21:03:01.609Z,88.43
2019-05-17T21:05:32.191Z,87.62
2019-05-17T21:08:02.941Z,88.48
2019-05-17T21:10:33.438Z,88.74
2019-05-17T21:13:04.017Z,88.41
2019-05-17T21:15:47.053Z,88.93
2019-05-17T21:18:06.888Z,88.69
2019-05-17T21:20:37.855Z,88.76
2019-05-17T21:23:08.435Z,89.19
2019-05-17T21:25:38.957Z,88.45
2019-05-17T21:28:09.482Z,88.99
2019-05-17T21:30:40.064Z,88.98
2019-05-17T21:33:10.572Z,89.75
2019-05-17T21:35:41.131Z,89.85
2019-05-17T21:38:11.651Z,89.57
2019-05-17T21:40:42.173Z,89.80
2019-05-17T21:43:12.772Z,89.82
2019-05-17T21:45:43.268Z,90.46
2019-05-17T21:48:13.852Z,89.94
2019-05-17T21:50:44.412Z,89.72
2019-05-17T21:53:14.933Z,89.51
2019-05-17T21:55:45.461Z,90.00
2019-05-17T21:58:20.223Z,90.06
2019-05-17T22:01:19.256Z,90.35
2019-05-17T22:03:49.942Z,90.07
2019-05-17T22:06:20.672Z,90.50
2019-05-17T22:08:51.235Z,90.59
2019-05-17T22:11:21.779Z,89.97
2019-05-17T22:13:52.483Z,90.71
2019-05-17T22:16:22.965Z,90.83
2019-05-17T22:18:53.559Z,90.46
2019-05-17T22:21:24.066Z,90.57
2019-05-17T22:23:55.306Z,90.64
2019-05-17T22:26:25.853Z,90.58
2019-05-17T22:28:56.559Z,90.79
2019-05-17T22:31:27.058Z,91.10
2019-05-17T22:33:57.682Z,90.96
2019-05-17T22:36:28.462Z,90.33
2019-05-17T22:38:59.037Z,90.80
2019-05-17T22:41:29.640Z,91.06
2019-05-17T22:44:00.131Z,90.93
2019-05-17T22:46:35.948Z,91.08
2019-05-17T22:49:02.964Z,91.39
2019-05-17T22:51:33.619Z,91.35
2019-05-17T22:54:04.224Z,91.45
2019-05-17T22:56:34.799Z,91.34
2019-05-17T22:59:05.420Z,91.60
2019-05-17T23:01:35.907Z,91.71
2019-05-17T23:04:06.886Z,91.91
2019-05-17T23:06:37.435Z,92.25
2019-05-17T23:09:08.658Z,92.50
2019-05-17T23:11:39.349Z,92.82
2019-05-17T23:14:09.917Z,92.18
2019-05-17T23:16:51.217Z,92.42
2019-05-17T23:19:12.698Z,92.31
2019-05-17T23:21:43.282Z,92.67
2019-05-17T23:24:13.801Z,92.71
2019-05-17T23:26:44.260Z,93.02
2019-05-17T23:29:14.745Z,93.50
2019-05-17T23:31:45.263Z,93.56
2019-05-17T23:34:15.785Z,93.24
2019-05-17T23:36:46.334Z,93.13
2019-05-17T23:39:16.874Z,93.16
2019-05-17T23:41:47.416Z,93.32
2019-05-17T23:44:17.930Z,93.53
2019-05-17T23:46:48.445Z,93.48
2019-05-17T23:49:19.025Z,93.43
2019-05-17T23:51:49.465Z,92.98
2019-05-17T23:54:19.998Z,92.98
2019-05-17T23:56:50.584Z,93.33
2019-05-17T23:59:21.217Z,93.19
